Time;durP1;ratioP1;P1;durP2;ratioP2;P2;SDS_P1;SDS_P2;PMS_P1;PMS_P2;Temp;Humidity;BMP_temperature;BMP_pressure;BME280_temperature;BME280_humidity;BME280_pressure;Samples;Min_cycle;Max_cycle;Signal;HPM_P1;HPM_P2
2022/11/07 00:01:09;;;;;;;20.65;12.45;;;;;;;0.47;80.44;100234.81;5097057;27;20048;-73
2022/11/07 00:03:33;;;;;;;23.27;12.88;;;;;;;0.39;80.58;100234.97;5097904;27;20506;-70
2022/11/07 00:05:58;;;;;;;18.10;11.35;;;;;;;0.44;81.00;100235.75;5086200;27;20111;-67
2022/11/07 00:08:30;;;;;;;18.50;11.60;;;;;;;0.46;81.50;100227.84;5109367;27;20070;-68
2022/11/07 00:10:55;;;;;;;20.40;13.32;;;;;;;0.39;81.42;100224.50;5081554;27;20031;-68
2022/11/07 00:13:19;;;;;;;23.17;12.52;;;;;;;0.43;81.50;100214.81;5102102;27;20054;-67
2022/11/07 00:15:44;;;;;;;17.25;10.82;;;;;;;0.48;81.59;100219.03;5101144;27;20027;-68
2022/11/07 00:18:09;;;;;;;22.65;12.60;;;;;;;0.43;82.36;100227.91;5083166;27;20035;-68
2022/11/07 00:20:33;;;;;;;20.40;12.18;;;;;;;0.48;82.27;100226.03;5100562;27;20051;-67
2022/11/07 00:22:58;;;;;;;20.00;11.45;;;;;;;0.57;82.25;100228.47;5083433;27;20134;-66
2022/11/07 00:25:23;;;;;;;22.00;11.50;;;;;;;0.57;82.01;100220.59;5101256;27;20100;-68
2022/11/07 00:27:47;;;;;;;20.17;11.88;;;;;;;0.61;81.78;100230.13;5108981;27;20086;-70
2022/11/07 00:30:12;;;;;;;20.77;12.60;;;;;;;0.63;81.18;100226.59;5117330;27;20141;-69
2022/11/07 00:32:37;;;;;;;27.52;15.73;;;;;;;0.55;81.35;100225.91;5101425;27;20035;-70
2022/11/07 00:35:01;;;;;;;22.88;13.38;;;;;;;0.55;81.05;100218.03;5101939;27;20205;-68
2022/11/07 00:37:27;;;;;;;23.08;13.35;;;;;;;0.49;81.73;100215.53;5101081;27;20046;-71
2022/11/07 00:39:52;;;;;;;22.27;12.63;;;;;;;0.58;82.32;100214.47;5081937;27;20039;-70
2022/11/07 00:42:17;;;;;;;28.02;15.63;;;;;;;0.59;82.04;100217.06;5081622;27;20042;-67
2022/11/07 00:44:41;;;;;;;20.00;12.13;;;;;;;0.64;82.07;100212.59;5102915;27;20431;-71
2022/11/07 00:47:06;;;;;;;26.38;13.23;;;;;;;0.61;81.99;100206.53;5112817;27;20045;-68
2022/11/07 00:49:31;;;;;;;19.42;11.55;;;;;;;0.65;82.22;100209.06;5093066;27;20175;-64
2022/11/07 00:51:55;;;;;;;20.95;11.90;;;;;;;0.70;81.53;100204.56;5104223;27;20058;-71
2022/11/07 00:54:20;;;;;;;22.70;12.25;;;;;;;0.70;81.66;100193.19;5101364;27;20074;-68
2022/11/07 00:56:44;;;;;;;20.75;12.80;;;;;;;0.68;81.14;100200.22;5101654;27;20041;-66
2022/11/07 00:59:09;;;;;;;24.52;14.20;;;;;;;0.61;81.62;100188.16;5101814;27;20084;-67
2022/11/07 01:01:34;;;;;;;26.45;14.05;;;;;;;0.55;82.08;100188.31;5101221;27;20126;-67
2022/11/07 01:06:43;;;;;;;21.48;14.30;;;;;;;0.65;82.73;100185.44;5100946;27;20045;-69
2022/11/07 01:09:10;;;;;;;21.00;12.90;;;;;;;0.76;82.58;100187.81;5082335;27;20102;-67
2022/11/07 01:11:37;;;;;;;24.48;12.40;;;;;;;0.79;82.75;100182.47;5082866;27;20065;-71
2022/11/07 01:14:02;;;;;;;27.42;14.73;;;;;;;0.77;82.49;100180.81;5100954;27;20501;-72
2022/11/07 01:16:29;;;;;;;25.75;14.05;;;;;;;0.79;82.41;100174.59;5100557;27;20027;-70
2022/11/07 01:18:54;;;;;;;22.10;13.55;;;;;;;0.81;82.59;100175.44;5082606;27;20362;-72
2022/11/07 01:21:19;;;;;;;32.72;18.38;;;;;;;0.78;82.90;100180.78;5100287;27;20054;-71
2022/11/07 01:23:44;;;;;;;21.85;13.35;;;;;;;0.87;82.46;100171.81;5070216;27;20137;-67
2022/11/07 01:26:11;;;;;;;22.52;14.18;;;;;;;0.90;82.49;100162.13;5102570;27;20066;-68
2022/11/07 01:28:37;;;;;;;22.90;14.15;;;;;;;0.84;82.54;100169.28;5103496;27;20047;-73
2022/11/07 01:31:07;;;;;;;27.38;14.65;;;;;;;0.83;82.49;100167.53;5101234;27;20414;-69
2022/11/07 01:33:32;;;;;;;25.13;13.73;;;;;;;0.85;82.69;100148.25;5099158;27;20079;-77
2022/11/07 01:36:01;;;;;;;21.27;12.07;;;;;;;0.99;82.69;100154.03;5098938;27;20099;-76
2022/11/07 01:38:26;;;;;;;19.45;11.68;;;;;;;0.96;82.21;100148.84;5098582;27;20050;-75
2022/11/07 01:43:46;;;;;;;15.95;10.73;;;;;;;1.00;81.85;100145.25;5106961;27;20046;-75
2022/11/07 01:46:11;;;;;;;18.67;10.30;;;;;;;1.02;81.96;100159.19;5105512;27;20043;-74
2022/11/07 01:48:35;;;;;;;17.17;10.35;;;;;;;1.01;81.29;100157.47;5094754;27;20062;-72
2022/11/07 01:51:00;;;;;;;24.73;13.55;;;;;;;0.96;81.34;100159.34;5081965;27;20039;-72
2022/11/07 01:53:25;;;;;;;24.55;15.20;;;;;;;0.85;81.82;100150.88;5063665;27;20039;-72
2022/11/07 01:55:50;;;;;;;22.48;13.88;;;;;;;0.84;81.97;100145.66;5098903;27;20035;-71
2022/11/07 01:58:14;;;;;;;19.70;11.93;;;;;;;0.91;82.07;100145.44;5097692;27;20086;-75
2022/11/07 02:00:39;;;;;;;16.83;10.80;;;;;;;0.93;82.08;100146.28;5098524;27;20425;-76
2022/11/07 02:03:10;;;;;;;19.38;11.63;;;;;;;1.00;81.95;100142.63;5098571;27;20054;-72
2022/11/07 02:05:42;;;;;;;20.23;12.80;;;;;;;0.95;81.96;100144.50;5079703;27;20080;-69
2022/11/07 02:08:08;;;;;;;19.75;12.25;;;;;;;0.93;82.33;100148.03;5112135;27;20489;-74
2022/11/07 02:10:34;;;;;;;16.40;10.93;;;;;;;0.96;82.09;100140.09;5097319;27;20081;-73
2022/11/07 02:12:59;;;;;;;21.00;11.75;;;;;;;0.94;82.24;100145.38;5078889;27;20039;-71
2022/11/07 02:15:43;;;;;;;18.50;10.63;;;;;;;0.99;82.13;100145.28;5096089;27;20143;-64
2022/11/07 02:18:08;;;;;;;15.35;10.18;;;;;;;0.96;82.44;100137.47;5097802;27;20067;-66
2022/11/07 02:20:33;;;;;;;22.67;12.93;;;;;;;1.02;81.83;100132.91;5082663;27;20039;-64
2022/11/07 02:23:02;;;;;;;17.65;10.85;;;;;;;1.01;81.71;100139.09;5098243;27;20106;-66
2022/11/07 02:25:28;;;;;;;21.45;13.02;;;;;;;0.93;81.71;100133.16;5110704;27;20047;-64
2022/11/07 02:27:57;;;;;;;18.55;10.98;;;;;;;0.99;81.91;100140.91;5099039;27;20051;-67
2022/11/07 02:30:26;;;;;;;24.67;11.82;;;;;;;0.85;82.14;100139.50;5099754;27;20443;-65
2022/11/07 02:32:51;;;;;;;18.10;10.80;;;;;;;0.86;82.32;100142.09;5062674;27;20035;-71
2022/11/07 02:35:42;;;;;;;19.90;11.40;;;;;;;0.97;82.28;100139.19;5081788;27;20122;-63
2022/11/07 02:38:21;;;;;;;20.58;11.55;;;;;;;0.88;82.85;100132.44;5099732;27;20042;-66
2022/11/07 02:40:56;;;;;;;28.25;14.95;;;;;;;0.89;82.63;100128.91;5100692;27;20074;-72
2022/11/07 02:43:22;;;;;;;;;;;;;;;0.83;83.04;100131.66;5109453;27;20458;-71
2022/11/07 02:45:49;;;;;;;20.63;11.50;;;;;;;0.80;83.33;100120.38;5078173;27;20005;-73
2022/11/07 02:48:13;;;;;;;18.25;9.38;;;;;;;0.87;83.98;100122.81;5118269;27;20031;-71
2022/11/07 02:50:39;;;;;;;21.30;11.70;;;;;;;0.86;83.28;100118.47;5114599;27;20038;-71
2022/11/07 02:53:03;;;;;;;15.18;9.93;;;;;;;0.91;83.13;100123.59;5081553;27;20049;-69
2022/11/07 02:55:28;;;;;;;17.27;9.65;;;;;;;0.94;82.37;100119.13;5097809;27;20043;-71
2022/11/07 02:57:52;;;;;;;16.33;9.50;;;;;;;0.98;82.46;100123.41;5103237;27;20050;-71
2022/11/07 03:00:17;;;;;;;17.08;9.85;;;;;;;0.99;82.59;100126.91;5104120;27;20055;-69
2022/11/07 03:02:48;;;;;;;17.75;11.40;;;;;;;0.94;82.55;100118.28;5106340;27;20058;-74
2022/11/07 03:05:15;;;;;;;18.95;11.65;;;;;;;0.94;83.02;100115.66;5107407;27;20424;-73
2022/11/07 03:07:42;;;;;;;23.15;12.80;;;;;;;1.00;82.72;100123.38;5109153;27;20069;-74
2022/11/07 03:10:07;;;;;;;17.63;10.43;;;;;;;0.98;82.63;100131.28;5109798;27;20129;-74
2022/11/07 03:12:32;;;;;;;23.88;13.15;;;;;;;0.94;83.03;100115.66;5106887;27;20053;-74
2022/11/07 03:14:57;;;;;;;16.08;9.65;;;;;;;0.98;83.18;100115.53;5091843;27;20046;-73
2022/11/07 03:17:21;;;;;;;15.77;10.48;;;;;;;1.01;82.67;100114.63;5097151;27;20114;-76
2022/11/07 03:19:46;;;;;;;17.45;11.05;;;;;;;1.03;83.17;100116.28;5105845;27;20509;-75
2022/11/07 03:22:11;;;;;;;18.23;10.35;;;;;;;1.00;82.90;100099.75;5099721;27;20047;-76
2022/11/07 03:24:35;;;;;;;17.92;11.15;;;;;;;1.05;83.17;100101.34;5099031;27;20863;-76
2022/11/07 03:27:00;;;;;;;18.25;9.70;;;;;;;1.06;82.91;100103.06;5101746;27;20497;-74
2022/11/07 03:29:24;;;;;;;15.48;9.20;;;;;;;1.13;82.96;100097.69;5107616;27;20041;-75
2022/11/07 03:31:49;;;;;;;19.33;11.38;;;;;;;1.02;82.95;100101.41;5100899;27;20103;-73
2022/11/07 03:34:14;;;;;;;21.00;11.90;;;;;;;1.17;82.61;100101.94;5095031;27;20046;-71
2022/11/07 03:36:38;;;;;;;16.92;10.13;;;;;;;1.14;82.74;100104.63;5077935;27;20764;-71
2022/11/07 03:39:03;;;;;;;18.33;11.63;;;;;;;1.12;82.63;100095.97;5076882;27;20408;-71
2022/11/07 03:41:28;;;;;;;18.15;11.98;;;;;;;1.14;83.01;100097.63;5095904;27;20062;-71
2022/11/07 03:43:52;;;;;;;23.10;10.98;;;;;;;1.18;82.39;100106.28;5097180;27;20035;-74
2022/11/07 03:46:17;;;;;;;16.77;9.60;;;;;;;1.24;82.36;100117.47;5103134;27;20049;-73
2022/11/07 03:48:42;;;;;;;17.13;9.50;;;;;;;1.24;82.68;100109.59;5100465;27;20447;-72
2022/11/07 03:51:08;;;;;;;14.88;8.70;;;;;;;1.26;82.03;100106.94;5100183;27;20130;-72
2022/11/07 03:53:33;;;;;;;22.30;10.63;;;;;;;1.31;82.16;100113.81;5100165;27;20405;-71
2022/11/07 03:55:57;;;;;;;14.82;8.50;;;;;;;1.44;82.15;100109.97;5100119;27;20082;-73
2022/11/07 03:58:23;;;;;;;16.98;10.68;;;;;;;1.40;81.85;100116.19;5100469;27;20066;-70
2022/11/07 04:00:48;;;;;;;15.73;10.27;;;;;;;1.33;81.52;100117.28;5099867;27;20058;-71
2022/11/07 04:03:13;;;;;;;16.23;10.00;;;;;;;1.34;82.00;100107.63;5099631;27;20039;-73
2022/11/07 04:05:37;;;;;;;20.40;10.77;;;;;;;1.17;82.07;100113.31;5099387;27;20047;-75
2022/11/07 04:08:03;;;;;;;14.70;9.25;;;;;;;1.31;81.93;100107.69;5100228;27;20118;-74
2022/11/07 04:10:27;;;;;;;15.95;8.52;;;;;;;1.34;81.66;100108.50;5101334;27;20050;-73
2022/11/07 04:18:21;;;;;;;14.55;9.45;;;;;;;1.39;82.33;100118.84;5099896;27;20050;-71
2022/11/07 04:20:45;;;;;;;17.35;9.60;;;;;;;1.38;81.95;100112.75;5081387;27;20043;-73
2022/11/07 04:23:10;;;;;;;17.58;9.55;;;;;;;1.43;82.06;100112.63;5099719;27;20043;-73
2022/11/07 04:28:18;;;;;;;13.85;9.13;;;;;;;1.40;81.63;100116.19;5098667;27;20039;-74
2022/11/07 04:30:43;;;;;;;15.90;9.32;;;;;;;1.42;81.74;100111.75;5099060;27;20049;-72
2022/11/07 04:33:07;;;;;;;16.23;8.95;;;;;;;1.45;81.69;100105.56;5099151;27;20070;-73
2022/11/07 04:35:32;;;;;;;17.25;9.27;;;;;;;1.43;81.68;100110.00;5098850;27;20566;-65
2022/11/07 04:37:58;;;;;;;14.82;10.00;;;;;;;1.49;81.77;100106.31;5080000;27;20410;-64
2022/11/07 04:40:22;;;;;;;15.55;9.35;;;;;;;1.52;81.92;100108.88;5098231;27;20548;-63
2022/11/07 04:42:48;;;;;;;16.77;9.63;;;;;;;1.50;81.63;100105.44;5098443;27;20158;-64
2022/11/07 04:45:13;;;;;;;14.18;9.13;;;;;;;1.53;81.69;100114.09;5079784;27;20054;-65
2022/11/07 04:47:38;;;;;;;15.77;8.25;;;;;;;1.57;81.43;100107.00;5094831;27;20049;-64
2022/11/07 04:50:05;;;;;;;13.65;8.38;;;;;;;1.52;81.14;100112.38;5098189;27;20074;-64
2022/11/07 04:52:29;;;;;;;15.07;8.75;;;;;;;1.50;81.00;100115.94;5098925;27;20057;-73
2022/11/07 04:54:54;;;;;;;15.07;9.60;;;;;;;1.55;81.20;100109.66;5098334;27;20047;-71
2022/11/07 04:57:19;;;;;;;17.15;9.25;;;;;;;1.51;81.15;100109.78;5080031;27;20050;-72
2022/11/07 04:59:43;;;;;;;14.77;8.82;;;;;;;1.54;81.42;100107.94;5101795;27;20063;-73
2022/11/07 05:02:10;;;;;;;17.13;8.73;;;;;;;1.53;81.40;100103.59;5119493;27;20049;-74
2022/11/07 05:04:34;;;;;;;13.48;8.00;;;;;;;1.59;81.42;100102.53;5103811;27;20095;-74
2022/11/07 05:06:59;;;;;;;13.68;8.02;;;;;;;1.58;81.87;100104.31;5079831;27;20043;-72
2022/11/07 05:09:23;;;;;;;12.48;8.52;;;;;;;1.66;81.58;100096.22;5080115;27;20049;-72
2022/11/07 05:11:48;;;;;;;14.63;8.80;;;;;;;1.69;81.45;100104.88;5098147;27;20511;-73
2022/11/07 05:14:13;;;;;;;15.18;9.27;;;;;;;1.70;81.49;100095.22;5098223;27;20457;-71
2022/11/07 05:16:39;;;;;;;14.95;8.95;;;;;;;1.72;81.22;100099.53;5080230;27;20588;-72
2022/11/07 05:19:04;;;;;;;16.42;9.30;;;;;;;1.80;81.39;100100.19;5098875;27;20039;-74
2022/11/07 05:21:28;;;;;;;14.65;8.70;;;;;;;1.70;80.78;100093.44;5099735;27;20122;-74
2022/11/07 05:23:53;;;;;;;21.48;11.90;;;;;;;1.58;80.95;100093.78;5101281;27;20039;-73
2022/11/07 05:26:18;;;;;;;15.40;9.32;;;;;;;1.62;81.49;100097.22;5082511;27;20092;-74
2022/11/07 05:28:42;;;;;;;14.30;7.90;;;;;;;1.69;81.50;100094.34;5098417;27;20042;-74
2022/11/07 05:31:10;;;;;;;13.88;7.72;;;;;;;1.75;81.59;100096.81;5109121;27;20095;-72
2022/11/07 05:33:35;;;;;;;12.75;8.18;;;;;;;1.78;81.42;100098.50;5102722;27;20502;-72
2022/11/07 05:36:14;;;;;;;16.55;9.20;;;;;;;1.86;81.50;100106.16;5098129;27;20862;-72
2022/11/07 05:38:47;;;;;;;17.27;9.10;;;;;;;1.88;81.41;100099.09;5080802;27;20084;-73
2022/11/07 05:41:13;;;;;;;13.32;8.63;;;;;;;1.87;80.97;100111.38;5103109;27;20504;-73
2022/11/07 05:43:38;;;;;;;15.20;8.15;;;;;;;1.89;80.69;100108.72;5100084;27;20401;-75
2022/11/07 05:46:04;;;;;;;13.45;9.00;;;;;;;1.84;81.51;100106.22;5101822;27;20039;-75
2022/11/07 05:48:29;;;;;;;13.38;8.30;;;;;;;1.81;80.79;100109.78;5110798;27;20043;-75
2022/11/07 05:50:53;;;;;;;13.25;8.48;;;;;;;1.90;80.83;100107.81;5097698;27;20468;-73
2022/11/07 05:53:21;;;;;;;16.45;8.68;;;;;;;1.90;81.03;100103.44;5097945;27;20039;-75
2022/11/07 05:55:46;;;;;;;14.13;8.43;;;;;;;1.86;80.81;100108.81;5079406;27;20507;-75
2022/11/07 05:58:12;;;;;;;14.88;9.00;;;;;;;1.92;80.72;100108.63;5097296;27;20050;-66
2022/11/07 06:00:38;;;;;;;14.98;9.00;;;;;;;1.96;80.77;100099.75;5096951;27;20180;-66
2022/11/07 06:03:03;;;;;;;17.27;8.02;;;;;;;2.00;80.27;100104.00;5097299;27;20058;-65
2022/11/07 06:05:28;;;;;;;14.25;7.72;;;;;;;2.02;80.67;100102.22;5106445;27;20038;-73
2022/11/07 06:07:53;;;;;;;13.25;8.18;;;;;;;1.99;80.23;100110.19;5117452;27;20050;-74
2022/11/07 06:10:17;;;;;;;18.23;10.02;;;;;;;2.03;80.29;100111.81;5078982;27;20031;-74
2022/11/07 06:12:42;;;;;;;14.80;8.77;;;;;;;1.99;80.79;100123.31;5110159;27;20050;-72
2022/11/07 06:15:07;;;;;;;16.23;8.48;;;;;;;2.04;80.58;100106.50;5113819;27;20026;-71
2022/11/07 06:17:32;;;;;;;12.13;8.65;;;;;;;2.09;80.62;100115.13;5098391;27;20114;-72
2022/11/07 06:19:56;;;;;;;18.33;10.20;;;;;;;2.04;80.35;100124.91;5098454;27;20497;-70
2022/11/07 06:22:23;;;;;;;15.10;9.30;;;;;;;2.13;80.26;100118.53;5098795;27;20103;-73
2022/11/07 06:24:48;;;;;;;17.30;8.45;;;;;;;2.20;80.10;100130.59;5079846;27;20534;-73
2022/11/07 06:27:13;;;;;;;15.07;8.18;;;;;;;2.18;79.93;100125.34;5078621;27;20485;-74
2022/11/07 06:29:37;;;;;;;16.30;8.68;;;;;;;2.23;80.08;100130.50;5096935;27;20177;-74
2022/11/07 06:32:02;;;;;;;16.02;8.65;;;;;;;2.27;79.93;100128.63;5078231;27;20042;-74
2022/11/07 06:34:27;;;;;;;15.77;8.07;;;;;;;2.30;79.38;100123.28;5096744;27;20035;-74
2022/11/07 06:36:55;;;;;;;12.07;8.18;;;;;;;2.40;79.61;100120.31;5077929;27;20401;-74
2022/11/07 06:39:20;;;;;;;16.27;9.15;;;;;;;2.41;79.54;100116.78;5096792;27;20443;-73
2022/11/07 06:41:44;;;;;;;14.90;8.75;;;;;;;2.45;79.51;100113.16;5077996;27;20047;-74
2022/11/07 06:44:09;;;;;;;22.50;8.02;;;;;;;2.48;79.17;100113.03;5108300;27;20060;-73
2022/11/07 06:46:34;;;;;;;15.18;8.10;;;;;;;2.50;78.94;100111.22;5105246;27;20046;-74
2022/11/07 06:48:58;;;;;;;18.73;8.57;;;;;;;2.54;79.17;100109.38;5085738;27;20066;-74
2022/11/07 06:51:23;;;;;;;16.17;9.25;;;;;;;2.55;78.88;100103.19;5078763;27;20043;-74
2022/11/07 06:53:49;;;;;;;13.77;8.48;;;;;;;2.58;78.28;100102.25;5096491;27;20043;-74
2022/11/07 06:56:14;;;;;;;15.50;8.07;;;;;;;2.55;78.13;100101.44;5097226;27;20134;-71
2022/11/07 06:58:39;;;;;;;14.00;8.35;;;;;;;2.51;78.10;100093.66;5066667;27;20071;-74
2022/11/07 07:01:07;;;;;;;15.18;9.43;;;;;;;2.50;78.43;100102.47;5083982;27;20114;-74
2022/11/07 07:03:32;;;;;;;13.73;8.15;;;;;;;2.48;77.97;100102.50;5096996;27;20065;-73
2022/11/07 07:06:04;;;;;;;13.98;7.85;;;;;;;2.46;78.31;100099.09;5096588;27;20051;-73
2022/11/07 07:08:29;;;;;;;15.30;8.88;;;;;;;2.40;78.21;100099.25;5077654;27;20159;-74
2022/11/07 07:10:54;;;;;;;14.27;8.85;;;;;;;2.46;78.29;100099.09;5096377;27;20051;-72
2022/11/07 07:13:18;;;;;;;13.40;7.65;;;;;;;2.51;78.50;100094.53;5097632;27;20054;-73
2022/11/07 07:15:52;;;;;;;12.48;8.57;;;;;;;2.59;78.33;100088.19;5096523;27;20043;-73
2022/11/07 07:18:18;;;;;;;12.60;7.45;;;;;;;2.54;78.17;100096.22;5077399;27;20041;-75
2022/11/07 07:20:43;;;;;;;14.30;8.60;;;;;;;2.55;77.74;100088.25;5065821;27;20051;-75
2022/11/07 07:23:08;;;;;;;11.02;7.07;;;;;;;2.62;78.08;100086.28;5095720;27;20061;-75
2022/11/07 07:25:32;;;;;;;14.63;8.10;;;;;;;2.67;77.92;100096.69;5095911;27;20049;-71
2022/11/07 07:27:57;;;;;;;13.25;8.68;;;;;;;2.68;77.68;100095.78;5095570;27;20035;-65
2022/11/07 07:30:22;;;;;;;13.82;7.47;;;;;;;2.72;77.27;100094.75;5095296;27;20130;-64
2022/11/07 07:32:46;;;;;;;15.93;8.50;;;;;;;2.71;77.68;100093.88;5095523;27;20114;-64
2022/11/07 07:35:11;;;;;;;11.32;7.90;;;;;;;2.76;77.86;100101.66;5096102;27;20172;-64
2022/11/07 07:37:36;;;;;;;16.88;10.35;;;;;;;2.73;77.76;100101.72;5096132;27;20034;-64
2022/11/07 07:40:00;;;;;;;19.92;9.23;;;;;;;2.82;77.81;100106.72;5095611;27;20103;-64
2022/11/07 07:42:26;;;;;;;17.05;9.80;;;;;;;2.87;77.79;100105.66;5077513;28;20043;-64
2022/11/07 07:44:52;;;;;;;17.02;9.57;;;;;;;2.89;77.61;100102.97;5069391;28;20073;-75
2022/11/07 07:47:16;;;;;;;14.98;8.82;;;;;;;2.91;76.99;100095.88;5112225;27;20074;-75
2022/11/07 07:49:41;;;;;;;13.02;8.15;;;;;;;2.89;77.33;100105.59;5103519;27;20066;-78
2022/11/07 07:52:05;;;;;;;11.30;7.47;;;;;;;2.96;76.97;100093.94;5103690;27;20067;-73
2022/11/07 07:54:30;;;;;;;12.60;7.80;;;;;;;2.96;76.79;100099.22;5095908;27;20046;-73
2022/11/07 07:56:54;;;;;;;15.45;7.78;;;;;;;2.98;76.71;100093.91;5096205;27;20042;-74
2022/11/07 07:59:19;;;;;;;12.10;8.27;;;;;;;3.07;77.09;100102.34;5096226;27;20468;-74
2022/11/07 08:01:43;;;;;;;14.60;8.43;;;;;;;3.10;76.75;100102.25;5095494;27;20038;-73
2022/11/07 08:04:08;;;;;;;16.23;7.93;;;;;;;3.12;76.55;100097.81;5096006;27;20057;-72
2022/11/07 08:06:34;;;;;;;13.07;7.80;;;;;;;3.11;76.40;100097.84;5095570;27;20039;-73
2022/11/07 08:08:58;;;;;;;14.02;8.70;;;;;;;3.05;76.68;100093.63;5077772;28;20045;-74
2022/11/07 08:11:23;;;;;;;15.77;8.20;;;;;;;3.07;76.58;100086.53;5095709;27;20031;-74
2022/11/07 08:13:48;;;;;;;13.30;8.27;;;;;;;2.99;76.54;100087.72;5077034;28;20043;-74
2022/11/07 08:16:12;;;;;;;15.73;8.50;;;;;;;3.05;76.51;100082.25;5095767;27;20498;-73
2022/11/07 08:18:39;;;;;;;12.13;7.35;;;;;;;3.11;76.68;100075.00;5095585;27;20054;-73
2022/11/07 08:21:04;;;;;;;13.40;8.68;;;;;;;3.16;76.38;100085.41;5095254;27;20058;-75
2022/11/07 08:23:30;;;;;;;14.98;9.50;;;;;;;3.18;76.51;100084.41;5094537;27;20047;-72
2022/11/07 08:25:56;;;;;;;10.32;7.35;;;;;;;3.27;76.23;100084.09;5095519;27;20047;-72
2022/11/07 08:28:26;;;;;;;16.15;9.50;;;;;;;3.32;76.25;100080.44;5076605;27;20035;-72
2022/11/07 08:30:57;;;;;;;14.35;8.35;;;;;;;3.32;75.58;100083.94;5096533;27;20469;-73
2022/11/07 08:33:21;;;;;;;16.90;9.38;;;;;;;3.25;75.78;100085.94;5081721;27;20466;-74
2022/11/07 08:35:46;;;;;;;14.98;8.43;;;;;;;3.29;75.73;100084.03;5082880;27;20039;-75
2022/11/07 08:38:11;;;;;;;21.08;8.77;;;;;;;3.26;76.15;100090.28;5107672;27;20050;-73
2022/11/07 08:40:35;;;;;;;13.98;9.48;;;;;;;3.16;75.75;100091.50;5085579;27;20103;-74
2022/11/07 08:43:00;;;;;;;13.88;8.52;;;;;;;3.12;75.84;100092.53;5100084;27;20039;-73
2022/11/07 08:45:25;;;;;;;14.82;8.25;;;;;;;3.04;76.20;100088.44;5098901;27;20039;-72
2022/11/07 08:47:50;;;;;;;15.05;8.25;;;;;;;3.09;76.32;100087.34;5113547;27;20042;-73
2022/11/07 08:50:14;;;;;;;18.95;8.27;;;;;;;3.09;76.57;100082.09;5098967;27;20043;-74
2022/11/07 08:52:39;;;;;;;19.23;10.15;;;;;;;3.14;76.22;100082.81;5113664;27;20047;-73
2022/11/07 08:55:04;;;;;;;16.33;8.93;;;;;;;3.09;76.40;100090.00;5081880;27;20386;-73
2022/11/07 08:57:28;;;;;;;13.13;8.20;;;;;;;3.16;76.38;100086.22;5100921;27;20035;-74
2022/11/07 08:59:54;;;;;;;14.43;8.32;;;;;;;3.18;76.51;100080.91;5082620;27;20377;-73
2022/11/07 09:02:19;;;;;;;12.02;7.70;;;;;;;3.23;76.38;100081.63;5100196;27;20155;-73
2022/11/07 09:04:43;;;;;;;18.80;9.48;;;;;;;3.20;76.00;100073.81;5100292;27;20074;-71
2022/11/07 09:07:08;;;;;;;22.70;8.50;;;;;;;3.21;76.06;100075.53;5100018;27;20129;-70
2022/11/07 09:09:32;;;;;;;15.77;8.98;;;;;;;3.22;76.32;100069.38;5081929;27;20050;-71
2022/11/07 09:11:57;;;;;;;12.18;7.88;;;;;;;3.14;76.39;100077.53;5081402;27;20047;-74
2022/11/07 09:14:22;;;;;;;17.42;8.88;;;;;;;3.14;76.23;100076.69;5099889;27;20035;-71
2022/11/07 09:16:46;;;;;;;16.67;9.18;;;;;;;3.09;76.57;100071.56;5100121;27;20046;-74
2022/11/07 09:19:11;;;;;;;15.45;9.23;;;;;;;3.08;76.61;100080.38;5103911;27;20088;-73
2022/11/07 09:21:35;;;;;;;16.00;8.88;;;;;;;3.10;76.73;100073.28;5112781;27;20085;-73
2022/11/07 09:24:00;;;;;;;14.88;8.30;;;;;;;3.14;76.71;100074.91;5109407;27;20039;-76
2022/11/07 09:26:25;;;;;;;17.55;10.30;;;;;;;3.07;76.72;100075.16;5114052;27;20063;-73
2022/11/07 09:28:49;;;;;;;18.67;9.32;;;;;;;3.07;76.76;100080.41;5115148;27;20516;-72
2022/11/07 09:31:14;;;;;;;19.55;10.25;;;;;;;3.02;76.60;100077.09;5113164;27;20489;-73
2022/11/07 09:33:39;;;;;;;14.95;9.15;;;;;;;3.06;76.93;100078.69;5095276;27;20279;-71
2022/11/07 09:36:04;;;;;;;18.70;9.65;;;;;;;3.10;76.81;100078.53;5104965;27;20494;-74
2022/11/07 09:38:30;;;;;;;18.08;8.77;;;;;;;3.11;76.96;100075.00;5079345;27;20035;-72
2022/11/07 09:41:14;;;;;;;14.32;8.82;;;;;;;3.14;76.83;100077.53;5079596;27;20462;-73
2022/11/07 09:43:53;;;;;;;17.10;9.63;;;;;;;3.21;76.33;100071.13;5097457;27;20456;-75
2022/11/07 09:46:46;;;;;;;17.02;10.07;;;;;;;3.12;76.74;100074.09;5102218;27;20524;-73
2022/11/07 09:49:35;;;;;;;18.45;9.88;;;;;;;3.10;76.92;100075.91;5084751;27;20504;-73
2022/11/07 09:52:39;;;;;;;21.20;11.82;;;;;;;3.16;77.28;100065.16;5068781;27;20165;-74
2022/11/07 09:55:30;;;;;;;15.32;9.82;;;;;;;3.16;77.10;100069.59;5077327;27;20059;-76
2022/11/07 09:57:59;;;;;;;17.85;9.52;;;;;;;3.18;77.06;100065.97;5097589;27;20043;-73
2022/11/07 10:00:26;;;;;;;16.05;9.75;;;;;;;3.23;77.01;100061.41;5078748;27;20067;-73
2022/11/07 10:02:56;;;;;;;15.35;9.63;;;;;;;3.25;76.48;100069.25;5096993;27;20390;-73
2022/11/07 10:05:43;;;;;;;16.58;10.90;;;;;;;3.21;76.97;100067.63;5096654;27;20073;-67
2022/11/07 10:08:19;;;;;;;17.48;9.90;;;;;;;3.21;77.13;100063.22;5096765;27;20386;-64
2022/11/07 10:10:56;;;;;;;18.20;10.88;;;;;;;3.23;76.89;100060.53;5079128;27;20115;-73
2022/11/07 10:13:51;;;;;;;22.83;11.85;;;;;;;3.18;76.51;100050.16;5082309;27;20043;-72
2022/11/07 10:16:25;;;;;;;14.90;9.52;;;;;;;3.17;76.38;100052.84;5118827;27;20081;-73
2022/11/07 10:18:53;;;;;;;18.20;10.20;;;;;;;3.14;77.10;100060.88;5079139;27;20039;-73
2022/11/07 10:21:26;;;;;;;21.88;10.38;;;;;;;3.13;76.86;100049.47;5098251;27;20300;-74
2022/11/07 10:24:12;;;;;;;19.13;9.75;;;;;;;3.13;77.25;100053.88;5112223;27;20038;-74
2022/11/07 10:26:43;;;;;;;16.70;10.13;;;;;;;3.08;77.53;100058.44;5078755;27;20562;-74
2022/11/07 10:29:19;;;;;;;17.13;9.60;;;;;;;3.16;77.30;100049.34;5104709;27;20095;-75
2022/11/07 10:32:33;;;;;;;19.02;10.23;;;;;;;3.17;77.48;100040.53;5103225;27;20163;-75
2022/11/07 10:35:17;;;;;;;14.85;9.88;;;;;;;3.16;77.55;100046.72;5101777;27;20042;-74
2022/11/07 10:37:42;;;;;;;15.57;9.52;;;;;;;3.18;76.99;100036.97;5115331;27;20759;-75
2022/11/07 10:40:18;;;;;;;18.55;9.93;;;;;;;3.20;76.94;100053.59;5092722;27;20404;-73
2022/11/07 10:42:45;;;;;;;19.70;10.75;;;;;;;3.06;77.02;100050.56;5113407;27;20034;-71
2022/11/07 10:45:12;;;;;;;18.88;12.25;;;;;;;3.06;77.50;100049.72;5114758;27;20035;-72
2022/11/07 10:47:38;;;;;;;21.10;10.98;;;;;;;3.02;77.40;100042.84;5102227;27;20030;-72
2022/11/07 10:50:17;;;;;;;21.27;12.13;;;;;;;3.05;77.49;100037.50;5117798;27;20520;-71
2022/11/07 10:52:51;;;;;;;19.48;11.43;;;;;;;2.90;77.78;100045.00;5078788;27;20043;-72
2022/11/07 10:55:16;;;;;;;15.65;9.93;;;;;;;3.01;77.89;100047.25;5080101;27;20050;-73
2022/11/07 10:57:42;;;;;;;16.17;10.35;;;;;;;3.00;77.95;100045.53;5099925;27;20042;-72
2022/11/07 11:00:25;;;;;;;18.60;10.68;;;;;;;3.06;77.94;100042.69;5100874;27;20043;-72
2022/11/07 11:02:51;;;;;;;21.80;11.65;;;;;;;3.03;77.71;100045.44;5066349;27;20110;-73
2022/11/07 11:05:24;;;;;;;18.38;10.57;;;;;;;3.06;77.90;100042.69;5083057;27;20035;-71
2022/11/07 11:07:49;;;;;;;14.38;9.18;;;;;;;3.15;77.86;100046.78;5089245;27;20121;-65
2022/11/07 11:10:29;;;;;;;19.95;11.55;;;;;;;3.24;77.07;100046.47;5101561;27;20321;-67
2022/11/07 11:12:55;;;;;;;18.60;10.38;;;;;;;3.07;77.01;100052.31;5098619;27;20041;-68
2022/11/07 11:15:23;;;;;;;22.48;12.77;;;;;;;3.02;77.65;100037.59;5098066;27;20039;-66
2022/11/07 11:18:04;;;;;;;16.05;9.30;;;;;;;3.09;77.63;100037.31;5115352;27;20042;-64
2022/11/07 11:20:42;;;;;;;21.25;11.80;;;;;;;3.08;78.01;100042.63;5107685;27;20386;-64
2022/11/07 11:23:25;;;;;;;19.55;11.30;;;;;;;3.16;77.91;100044.06;5111176;27;20070;-67
2022/11/07 11:25:57;;;;;;;20.52;11.13;;;;;;;3.09;77.65;100042.59;5060139;27;20081;-69
2022/11/07 11:28:28;;;;;;;19.45;10.38;;;;;;;3.10;77.43;100038.19;5095885;27;20104;-68
2022/11/07 11:31:02;;;;;;;19.58;12.10;;;;;;;3.11;77.44;100038.13;5081129;27;20277;-71
2022/11/07 11:33:37;;;;;;;22.27;11.13;;;;;;;3.09;77.55;100036.44;5098038;27;20042;-64
2022/11/07 11:36:13;;;;;;;19.08;10.50;;;;;;;3.02;78.06;100034.94;5101892;27;20501;-66